Time;durP1;ratioP1;P1;durP2;ratioP2;P2;SDS_P1;SDS_P2;PMS_P1;PMS_P2;Temp;Humidity;BMP_temperature;BMP_pressure;BME280_temperature;BME280_humidity;BME280_pressure;Samples;Min_cycle;Max_cycle;Signal;HPM_P1;HPM_P2
2023/01/28 08:37:10;;;;;;;14.00;13.00;;;;;;;-0.06;95.12;92446.28;4944718;29;20228;-78
2023/01/28 08:39:36;;;;;;;15.27;14.07;;;;;;;0.17;93.50;92437.88;4930613;23;20252;-79
2023/01/28 08:42:01;;;;;;;13.87;12.77;;;;;;;0.13;94.01;92429.84;4954999;29;20194;-83
2023/01/28 08:44:26;;;;;;;13.63;12.67;;;;;;;0.20;93.19;92451.06;4935803;23;20729;-81
2023/01/28 08:46:52;;;;;;;14.63;13.43;;;;;;;-0.28;94.13;92406.78;4930946;29;20770;-80
2023/01/28 08:49:17;;;;;;;14.47;13.17;;;;;;;-0.26;93.31;92385.03;4929497;29;20272;-81
2023/01/28 08:51:43;;;;;;;14.33;13.33;;;;;;;-0.05;93.94;92442.75;4928852;29;20214;-81
2023/01/28 08:54:08;;;;;;;14.63;13.63;;;;;;;-0.14;94.04;92424.31;4907628;29;20230;-81
2023/01/28 08:56:34;;;;;;;15.13;13.93;;;;;;;0.27;93.38;92405.53;4949314;29;20304;-82
2023/01/28 08:58:59;;;;;;;14.50;13.50;;;;;;;0.37;90.72;92431.47;4946894;29;20233;-86
2023/01/28 09:01:26;;;;;;;13.90;12.93;;;;;;;0.29;91.07;92425.84;4929518;29;20232;-82
2023/01/28 09:03:51;;;;;;;12.43;11.53;;;;;;;-0.01;90.87;92408.72;4946405;29;21745;-82
2023/01/28 09:06:16;;;;;;;14.13;13.17;;;;;;;0.41;91.81;92452.31;4949318;29;20217;-82
2023/01/28 09:08:42;;;;;;;12.87;11.80;;;;;;;0.31;91.18;92422.09;4949833;29;21096;-81
2023/01/28 09:11:07;;;;;;;12.80;11.57;;;;;;;0.55;91.31;92458.81;4949020;29;20193;-79
2023/01/28 09:13:33;;;;;;;14.23;13.07;;;;;;;0.25;92.05;92463.25;4946336;29;20244;-72
2023/01/28 09:15:58;;;;;;;14.27;13.10;;;;;;;0.33;92.33;92445.72;4949251;29;20215;-76
2023/01/28 09:18:23;;;;;;;14.07;12.97;;;;;;;0.58;92.23;92460.94;4948324;29;20232;-76
2023/01/28 09:20:49;;;;;;;13.57;12.57;;;;;;;0.84;91.16;92463.09;4948600;29;20193;-76
2023/01/28 09:23:14;;;;;;;15.10;13.83;;;;;;;0.53;91.44;92469.31;4948139;29;20448;-75
2023/01/28 09:25:40;;;;;;;12.57;11.67;;;;;;;0.15;92.74;92434.75;4948228;29;20221;-74
2023/01/28 09:28:06;;;;;;;13.93;12.87;;;;;;;0.42;92.53;92459.03;4948791;29;20235;-76
2023/01/28 09:30:32;;;;;;;14.13;13.07;;;;;;;0.38;92.54;92456.13;4948383;29;20279;-75
2023/01/28 09:32:57;;;;;;;14.90;13.73;;;;;;;0.33;92.15;92432.88;4949052;29;20196;-81
2023/01/28 09:35:23;;;;;;;16.17;14.90;;;;;;;0.56;92.17;92455.25;4949801;29;20186;-78
2023/01/28 09:37:49;;;;;;;16.93;15.50;;;;;;;0.34;93.22;92446.50;4949363;29;20185;-78
2023/01/28 09:40:27;;;;;;;18.53;16.60;;;;;;;0.52;93.19;92442.06;4949545;29;20208;-78
2023/01/28 09:43:07;;;;;;;13.33;12.33;;;;;;;0.84;91.39;92463.09;4948334;29;20248;-78
2023/01/28 09:45:54;;;;;;;13.53;12.43;;;;;;;1.01;92.81;92457.03;4948831;29;20233;-78
2023/01/28 09:48:23;;;;;;;13.20;12.20;;;;;;;0.52;92.95;92465.19;4933084;29;20304;-79
2023/01/28 09:50:52;;;;;;;13.70;12.57;;;;;;;0.41;93.71;92465.16;4949555;29;20212;-78
2023/01/28 09:53:21;;;;;;;14.43;13.33;;;;;;;0.33;93.79;92456.00;4949178;29;20229;-79
2023/01/28 09:55:52;;;;;;;14.80;13.60;;;;;;;0.28;93.27;92430.19;4950053;29;20221;-79
2023/01/28 09:58:17;;;;;;;15.93;14.50;;;;;;;0.55;92.52;92439.06;4945849;29;20228;-78
2023/01/28 10:00:59;;;;;;;15.17;13.87;;;;;;;0.68;92.14;92461.19;4949271;29;20191;-77
2023/01/28 10:03:44;;;;;;;14.23;13.23;;;;;;;0.91;91.34;92463.75;4948969;29;20588;-77
2023/01/28 10:06:21;;;;;;;12.83;11.93;;;;;;;0.85;90.89;92450.03;4952361;29;20246;-77
2023/01/28 10:09:22;;;;;;;15.43;14.23;;;;;;;0.64;91.28;92437.72;4951721;29;20245;-76
2023/01/28 10:12:18;;;;;;;14.53;13.23;;;;;;;0.60;92.96;92451.22;4952761;29;20196;-77
2023/01/28 10:15:05;;;;;;;15.43;13.93;;;;;;;0.69;93.25;92442.97;4967787;28;20229;-77
2023/01/28 10:17:38;;;;;;;14.63;13.50;;;;;;;0.35;92.71;92397.50;4952387;29;20212;-77
2023/01/28 10:20:10;;;;;;;15.23;13.83;;;;;;;0.81;92.08;92454.03;4951912;29;20236;-76
2023/01/28 10:22:43;;;;;;;14.77;13.53;;;;;;;0.66;92.70;92448.56;4935722;29;20189;-84
2023/01/28 10:25:29;;;;;;;13.33;12.17;;;;;;;0.49;93.69;92429.69;4951947;29;20252;-76
2023/01/28 10:27:55;;;;;;;14.20;13.23;;;;;;;0.55;94.74;92456.25;4952041;29;20193;-78
2023/01/28 10:30:30;;;;;;;14.87;13.67;;;;;;;0.58;94.59;92453.22;4952872;29;20584;-77
2023/01/28 10:33:03;;;;;;;15.43;13.93;;;;;;;0.41;94.02;92426.63;4951349;29;20193;-80
2023/01/28 10:35:37;;;;;;;14.33;13.13;;;;;;;0.52;94.68;92424.09;4952685;29;20213;-82
2023/01/28 10:38:07;;;;;;;14.73;13.43;;;;;;;0.48;95.20;92450.44;4953925;29;20228;-80
2023/01/28 10:40:33;;;;;;;14.80;13.50;;;;;;;0.29;95.57;92444.59;4955203;29;20212;-81
2023/01/28 10:42:59;;;;;;;16.70;15.20;;;;;;;0.29;95.73;92449.75;4954516;29;20189;-80
2023/01/28 10:45:30;;;;;;;15.17;13.80;;;;;;;0.28;95.91;92448.16;4954732;29;20261;-80
2023/01/28 10:48:16;;;;;;;16.47;15.00;;;;;;;0.21;96.77;92437.22;4938723;29;20217;-81
2023/01/28 10:50:55;;;;;;;15.90;14.40;;;;;;;0.47;96.73;92446.31;4955181;29;20213;-81
2023/01/28 10:53:33;;;;;;;15.80;14.33;;;;;;;0.30;94.72;92417.13;4954321;29;20236;-81
2023/01/28 10:55:59;;;;;;;16.10;14.53;;;;;;;0.58;95.36;92438.63;4952349;29;20184;-80
2023/01/28 10:58:28;;;;;;;15.37;13.87;;;;;;;0.39;95.65;92449.97;4953289;29;20229;-80
2023/01/28 11:00:56;;;;;;;16.43;14.70;;;;;;;0.33;95.11;92404.66;4937575;29;20221;-80
2023/01/28 11:03:26;;;;;;;14.70;13.50;;;;;;;0.51;94.96;92432.81;4953296;29;20310;-81
2023/01/28 11:05:53;;;;;;;15.90;14.43;;;;;;;0.71;93.74;92405.00;4953354;29;20239;-82
2023/01/28 11:08:20;;;;;;;14.80;13.53;;;;;;;0.89;93.51;92450.34;4952721;29;20237;-81
2023/01/28 11:10:46;;;;;;;15.33;13.90;;;;;;;0.52;93.58;92436.94;4953898;29;20189;-81
2023/01/28 11:13:14;;;;;;;17.23;15.63;;;;;;;0.42;94.13;92448.75;4953945;29;20268;-81
2023/01/28 11:15:46;;;;;;;16.30;14.90;;;;;;;0.38;94.19;92427.09;4953255;29;20194;-81
2023/01/28 11:18:24;;;;;;;15.97;14.47;;;;;;;0.60;93.70;92426.34;4953680;29;20244;-81
2023/01/28 11:20:56;;;;;;;14.33;13.07;;;;;;;0.76;92.28;92445.44;4953454;29;20197;-81
2023/01/28 11:23:26;;;;;;;15.40;14.07;;;;;;;0.74;91.95;92455.16;4953460;29;20237;-81
2023/01/28 11:26:01;;;;;;;16.27;14.87;;;;;;;0.93;93.10;92441.19;4936821;29;20216;-81
2023/01/28 11:28:27;;;;;;;15.37;13.90;;;;;;;0.91;92.97;92446.56;4953586;29;20237;-80
2023/01/28 11:30:55;;;;;;;14.70;13.40;;;;;;;0.84;91.89;92445.09;4953905;29;20181;-80
2023/01/28 11:33:35;;;;;;;14.90;13.80;;;;;;;0.75;91.02;92428.44;4952805;29;20226;-81
2023/01/28 11:36:30;;;;;;;15.37;14.07;;;;;;;0.84;90.70;92445.09;4953342;29;20169;-80
2023/01/28 11:38:57;;;;;;;13.97;12.87;;;;;;;0.81;89.61;92443.00;4935632;29;20371;-81
2023/01/28 11:41:35;;;;;;;14.83;13.33;;;;;;;0.81;90.92;92443.75;4954167;29;20288;-80
2023/01/28 11:44:22;;;;;;;15.63;14.27;;;;;;;0.68;90.99;92444.00;4953076;29;20243;-81
2023/01/28 11:46:51;;;;;;;14.13;12.63;;;;;;;1.09;90.37;92443.09;4953944;29;21691;-81
2023/01/28 11:49:34;;;;;;;15.37;14.17;;;;;;;1.12;89.09;92440.06;4953290;29;20296;-81
2023/01/28 11:52:35;;;;;;;15.43;14.00;;;;;;;1.11;90.11;92433.34;4953346;29;20186;-81
2023/01/28 11:55:20;;;;;;;14.80;13.40;;;;;;;1.20;88.02;92449.97;4950218;29;20269;-81
2023/01/28 11:58:13;;;;;;;14.27;13.10;;;;;;;0.96;88.75;92441.53;4951883;29;20217;-80
2023/01/28 12:00:59;;;;;;;14.67;13.53;;;;;;;1.17;88.11;92443.50;4953837;29;20209;-81
2023/01/28 12:03:37;;;;;;;15.37;14.17;;;;;;;0.95;88.33;92439.19;4952537;29;20237;-81
2023/01/28 12:06:20;;;;;;;14.60;13.43;;;;;;;0.86;89.05;92443.88;4952280;29;20221;-81
2023/01/28 12:09:07;;;;;;;14.33;13.33;;;;;;;0.97;88.28;92450.78;4952365;29;20245;-82
2023/01/28 12:12:12;;;;;;;13.80;12.80;;;;;;;0.84;88.54;92433.03;4952682;29;20186;-82
2023/01/28 12:14:49;;;;;;;14.80;13.77;;;;;;;0.53;89.18;92451.31;4952087;29;20233;-81
2023/01/28 12:17:26;;;;;;;13.43;12.53;;;;;;;0.39;90.78;92441.50;4952775;29;20205;-81
2023/01/28 12:20:20;;;;;;;15.20;14.10;;;;;;;0.67;91.02;92444.97;4952541;29;20225;-81
2023/01/28 12:23:21;;;;;;;14.93;13.73;;;;;;;0.52;90.78;92444.63;4952108;29;20190;-81
2023/01/28 12:25:59;;;;;;;14.10;13.00;;;;;;;0.55;91.11;92444.19;4935420;29;20233;-81
2023/01/28 12:28:43;;;;;;;13.03;12.03;;;;;;;0.64;90.70;92448.00;4951949;29;20233;-82
2023/01/28 12:31:27;;;;;;;15.47;14.27;;;;;;;0.74;91.62;92442.31;4952594;29;20181;-79
2023/01/28 12:34:10;;;;;;;14.37;13.27;;;;;;;0.66;90.26;92443.41;4967330;29;20251;-81
2023/01/28 12:36:54;;;;;;;15.53;14.23;;;;;;;0.92;90.51;92449.91;4967295;29;20202;-76
2023/01/28 12:39:35;;;;;;;15.27;14.10;;;;;;;0.86;89.91;92445.66;4952528;29;20836;-78
2023/01/28 12:42:11;;;;;;;14.00;12.90;;;;;;;0.65;91.01;92434.16;4951264;29;20291;-78
2023/01/28 12:44:48;;;;;;;13.67;12.63;;;;;;;0.76;89.38;92451.38;4951249;29;20279;-77
2023/01/28 12:47:42;;;;;;;14.23;13.03;;;;;;;1.00;89.80;92452.91;4929897;29;20193;-79
2023/01/28 12:50:19;;;;;;;14.27;13.20;;;;;;;0.75;89.26;92459.25;4948612;29;20281;-77
2023/01/28 12:53:18;;;;;;;14.50;13.30;;;;;;;0.83;89.84;92462.31;4951247;29;20193;-77
2023/01/28 12:55:47;;;;;;;16.27;14.77;;;;;;;0.94;91.06;92463.28;4945745;29;20222;-80
2023/01/28 12:58:20;;;;;;;15.67;14.37;;;;;;;0.60;90.37;92449.44;4965668;29;20228;-79
2023/01/28 13:00:50;;;;;;;15.07;13.87;;;;;;;0.76;91.13;92466.00;4966476;29;20262;-79
2023/01/28 13:03:39;;;;;;;15.50;14.20;;;;;;;0.55;90.69;92469.06;4934523;29;20233;-79
2023/01/28 13:06:14;;;;;;;14.73;13.37;;;;;;;0.68;91.63;92469.69;4951521;29;20221;-80
2023/01/28 13:08:40;;;;;;;13.87;12.77;;;;;;;0.72;90.83;92452.81;4950793;29;20239;-80
2023/01/28 13:11:13;;;;;;;14.53;13.27;;;;;;;0.79;91.22;92475.81;4950542;29;20185;-80
2023/01/28 13:13:43;;;;;;;14.67;13.67;;;;;;;0.59;90.83;92465.84;4950168;29;20253;-79
2023/01/28 13:16:10;;;;;;;16.23;14.57;;;;;;;0.69;91.60;92450.69;4951297;29;20190;-81
2023/01/28 13:18:39;;;;;;;16.67;14.87;;;;;;;1.15;89.29;92481.50;4950106;29;20248;-80
2023/01/28 13:21:06;;;;;;;14.93;13.67;;;;;;;0.72;90.74;92468.22;4951358;29;20193;-80
2023/01/28 13:23:41;;;;;;;14.90;13.80;;;;;;;0.41;91.03;92465.94;4951178;29;20307;-80
2023/01/28 13:26:09;;;;;;;15.67;14.20;;;;;;;0.56;90.86;92491.22;4951474;29;20205;-80
2023/01/28 13:28:34;;;;;;;13.83;12.53;;;;;;;0.27;90.41;92435.53;4951056;29;20225;-81
2023/01/28 13:31:05;;;;;;;15.03;13.30;;;;;;;0.84;90.93;92488.78;4951341;29;20252;-80
2023/01/28 13:33:37;;;;;;;16.97;15.47;;;;;;;0.58;90.93;92489.97;4951136;29;20229;-79
2023/01/28 13:36:20;;;;;;;14.80;13.47;;;;;;;0.89;90.31;92496.59;4966262;29;20193;-80
2023/01/28 13:38:46;;;;;;;13.37;12.17;;;;;;;0.79;90.19;92481.75;4963241;28;20221;-80
2023/01/28 13:41:12;;;;;;;15.30;14.00;;;;;;;1.89;98.99;92490.19;4951286;29;20205;-85
2023/01/28 13:43:40;;;;;;;15.80;14.37;;;;;;;1.17;89.19;92489.78;4932599;29;20234;-76
2023/01/28 13:46:26;;;;;;;14.10;12.97;;;;;;;1.05;88.88;92490.78;4933874;29;20268;-88
2023/01/28 13:48:54;;;;;;;15.60;14.33;;;;;;;0.83;89.29;92508.53;4933021;29;20237;-78
2023/01/28 13:51:28;;;;;;;16.50;14.90;;;;;;;0.78;88.86;92495.56;4949378;29;20217;-78
2023/01/28 13:54:03;;;;;;;14.43;13.00;;;;;;;0.82;90.02;92503.63;4951031;29;20244;-78
2023/01/28 13:56:58;;;;;;;14.97;13.80;;;;;;;0.80;89.85;92496.16;4949174;29;20266;-77
2023/01/28 13:59:45;;;;;;;17.37;15.57;;;;;;;0.79;90.14;92516.91;4932593;29;20367;-79
2023/01/28 14:02:42;;;;;;;15.47;13.87;;;;;;;0.57;90.54;92503.03;4964168;28;20208;-81
2023/01/28 14:05:39;;;;;;;15.10;13.63;;;;;;;0.60;91.38;92521.38;4933915;29;20235;-77
2023/01/28 14:08:17;;;;;;;15.93;13.63;;;;;;;0.53;91.88;92518.09;4948927;29;20284;-75
2023/01/28 14:10:54;;;;;;;16.13;14.73;;;;;;;0.53;92.48;92514.75;4950238;29;20244;-78
2023/01/28 14:13:26;;;;;;;15.83;14.40;;;;;;;0.49;93.30;92522.13;4946449;29;20241;-80
2023/01/28 14:16:03;;;;;;;16.13;14.53;;;;;;;0.44;92.92;92527.13;4950544;29;20201;-77
2023/01/28 14:18:44;;;;;;;15.10;13.80;;;;;;;-0.03;94.74;92456.13;4932530;29;20228;-75
2023/01/28 14:21:15;;;;;;;16.63;15.00;;;;;;;0.49;94.34;92536.72;4950383;29;20197;-76
2023/01/28 14:23:47;;;;;;;16.40;14.90;;;;;;;0.43;94.81;92532.47;4949867;29;20300;-77
2023/01/28 14:26:31;;;;;;;15.20;13.90;;;;;;;0.19;95.19;92536.75;4949811;29;20244;-76
2023/01/28 14:29:32;;;;;;;17.47;15.77;;;;;;;0.39;96.38;92547.53;4950182;29;20231;-76
2023/01/28 14:32:03;;;;;;;15.70;14.10;;;;;;;0.49;95.86;92547.00;4950646;29;20217;-77
2023/01/28 14:34:31;;;;;;;17.20;15.67;;;;;;;0.58;95.43;92548.25;4948618;29;20248;-76
2023/01/28 14:37:03;;;;;;;17.90;16.17;;;;;;;0.46;94.64;92545.66;4948085;29;20186;-77
2023/01/28 14:39:31;;;;;;;16.93;15.33;;;;;;;0.29;95.17;92549.06;4949121;29;20237;-76
2023/01/28 14:42:00;;;;;;;15.97;14.47;;;;;;;0.36;95.76;92537.69;4947005;29;20193;-76
2023/01/28 14:44:35;;;;;;;17.63;15.77;;;;;;;0.15;96.17;92548.47;4949314;29;20313;-76
2023/01/28 14:47:19;;;;;;;15.97;14.57;;;;;;;0.52;95.79;92556.84;4949230;29;20213;-78
2023/01/28 14:50:06;;;;;;;16.10;14.67;;;;;;;0.39;95.44;92567.31;4948273;29;20222;-77
2023/01/28 14:52:49;;;;;;;19.07;17.03;;;;;;;0.31;95.21;92565.03;4953846;29;20908;-78
2023/01/28 14:55:33;;;;;;;17.03;14.90;;;;;;;0.11;96.39;92565.28;4952458;29;20221;-77
2023/01/28 14:58:05;;;;;;;20.93;16.27;;;;;;;0.08;96.57;92550.31;4966048;28;20193;-77
2023/01/28 15:00:32;;;;;;;18.23;16.33;;;;;;;0.10;96.95;92571.41;4951873;29;20203;-76
2023/01/28 15:02:58;;;;;;;17.87;15.97;;;;;;;0.08;96.00;92573.41;4934808;29;20189;-83
2023/01/28 15:05:28;;;;;;;17.87;16.20;;;;;;;-0.17;97.21;92568.38;4936984;29;20224;-83
2023/01/28 15:07:54;;;;;;;19.70;17.53;;;;;;;-0.43;98.57;92537.13;4950030;29;20186;-78
2023/01/28 15:10:31;;;;;;;17.00;15.40;;;;;;;-0.14;99.13;92575.63;4953919;29;20188;-80
2023/01/28 15:13:04;;;;;;;18.17;15.33;;;;;;;-0.13;99.79;92574.66;4949433;29;20261;-80
2023/01/28 15:15:36;;;;;;;20.83;15.90;;;;;;;-0.10;99.90;92568.31;4953122;29;20198;-78
2023/01/28 15:18:28;;;;;;;17.57;14.60;;;;;;;-0.17;100.00;92580.41;4952720;29;20298;-78
2023/01/28 15:20:55;;;;;;;18.73;15.77;;;;;;;-0.25;100.00;92578.16;4951497;29;20214;-78
2023/01/28 15:23:26;;;;;;;17.83;16.07;;;;;;;-0.28;100.00;92581.91;4951176;29;20233;-80
2023/01/28 15:25:51;;;;;;;18.70;16.37;;;;;;;-0.38;100.00;92575.72;4952234;29;20221;-75
2023/01/28 15:28:31;;;;;;;18.57;16.77;;;;;;;-0.21;100.00;92577.50;4952256;29;20264;-81
2023/01/28 15:30:58;;;;;;;20.00;17.83;;;;;;;-0.40;100.00;92580.28;4950687;29;20216;-78
2023/01/28 15:33:24;;;;;;;20.10;17.97;;;;;;;-0.32;100.00;92565.41;4952636;29;20213;-72
2023/01/28 15:35:51;;;;;;;18.87;17.17;;;;;;;-0.36;100.00;92579.63;4951540;29;20233;-75
2023/01/28 15:38:17;;;;;;;17.43;15.63;;;;;;;-0.34;100.00;92585.34;4952192;29;20244;-78
2023/01/28 15:40:48;;;;;;;18.20;16.60;;;;;;;-0.37;100.00;92587.53;4935638;29;20178;-77
2023/01/28 15:43:19;;;;;;;17.03;15.63;;;;;;;-0.41;100.00;92594.09;4952485;29;20232;-77
2023/01/28 15:45:47;;;;;;;20.37;18.20;;;;;;;-0.45;100.00;92578.34;4952370;29;20220;-77
2023/01/28 15:48:14;;;;;;;18.03;16.23;;;;;;;-0.21;100.00;92597.25;4951095;29;20237;-75
2023/01/28 15:50:43;;;;;;;17.13;15.50;;;;;;;-0.43;100.00;92590.97;4952629;29;20257;-74
2023/01/28 15:53:10;;;;;;;17.20;15.40;;;;;;;-0.44;100.00;92579.16;4951919;29;20241;-74
2023/01/28 15:55:38;;;;;;;17.57;15.73;;;;;;;-0.34;100.00;92581.97;4951764;29;20257;-74
2023/01/28 15:58:27;;;;;;;16.10;14.43;;;;;;;-0.26;100.00;92599.66;4933056;29;20237;-74
2023/01/28 16:01:03;;;;;;;17.53;15.83;;;;;;;-0.35;100.00;92606.06;4951894;29;20189;-74
2023/01/28 16:03:28;;;;;;;16.27;14.90;;;;;;;-0.37;100.00;92595.22;4951242;29;20233;-75
2023/01/28 16:06:02;;;;;;;19.07;16.37;;;;;;;-0.36;100.00;92604.50;4951337;29;20217;-74
2023/01/28 16:08:38;;;;;;;17.00;15.23;;;;;;;-0.42;99.25;92620.75;4951427;29;20257;-74
2023/01/28 16:11:04;;;;;;;16.57;14.97;;;;;;;-0.32;98.30;92615.91;4948734;29;20197;-74
2023/01/28 16:13:34;;;;;;;15.93;14.53;;;;;;;-0.35;99.09;92609.44;4950030;29;20262;-73
2023/01/28 16:16:02;;;;;;;16.27;14.57;;;;;;;-0.42;97.42;92610.50;4949158;29;20182;-74
2023/01/28 16:18:42;;;;;;;14.80;13.40;;;;;;;-0.17;96.77;92624.81;4950838;29;20271;-74
2023/01/28 16:21:11;;;;;;;16.70;15.20;;;;;;;-0.16;95.51;92615.34;4949845;29;20232;-74
2023/01/28 16:23:37;;;;;;;15.10;13.80;;;;;;;-0.20;94.04;92629.56;4950456;29;20245;-74
2023/01/28 16:26:05;;;;;;;14.67;13.37;;;;;;;-0.37;94.99;92633.69;4951518;29;20278;-74
2023/01/28 16:28:31;;;;;;;13.77;12.47;;;;;;;-0.35;95.01;92639.41;4951273;29;20233;-74
2023/01/28 16:30:58;;;;;;;15.43;14.23;;;;;;;-0.37;96.23;92633.69;4951000;29;20193;-73
2023/01/28 16:33:24;;;;;;;14.40;13.10;;;;;;;-0.49;95.18;92614.88;4950869;29;20277;-73
2023/01/28 16:35:50;;;;;;;14.57;12.93;;;;;;;-0.43;95.70;92624.28;4949335;29;20253;-73
2023/01/28 16:38:16;;;;;;;16.10;14.63;;;;;;;-0.43;94.71;92619.97;4950335;29;20352;-74
2023/01/28 16:40:43;;;;;;;14.70;13.40;;;;;;;-0.29;94.83;92648.81;4950032;29;20201;-72
2023/01/28 16:43:14;;;;;;;15.10;13.73;;;;;;;-0.10;95.26;92637.56;4933910;29;20256;-74
2023/01/28 16:45:42;;;;;;;15.00;13.50;;;;;;;-0.13;94.07;92636.22;4949408;29;20248;-74
2023/01/28 16:48:08;;;;;;;14.67;13.60;;;;;;;-0.38;92.89;92609.84;4950723;29;20237;-74
2023/01/28 16:50:33;;;;;;;16.23;14.63;;;;;;;-0.34;92.59;92633.28;4952126;29;20284;-74
2023/01/28 16:52:59;;;;;;;15.30;13.70;;;;;;;-0.55;93.15;92585.78;4951017;29;20292;-73
2023/01/28 16:55:25;;;;;;;17.00;15.50;;;;;;;-0.08;92.62;92644.03;4950879;29;20198;-76
2023/01/28 16:57:54;;;;;;;14.53;13.37;;;;;;;-0.01;91.35;92652.47;4951021;29;20185;-73
2023/01/28 17:00:25;;;;;;;14.67;13.27;;;;;;;-0.18;92.16;92627.59;4951000;29;20189;-79
2023/01/28 17:02:53;;;;;;;16.63;15.13;;;;;;;0.07;92.75;92656.53;4949514;29;20209;-77
2023/01/28 17:05:19;;;;;;;14.83;13.63;;;;;;;-0.14;90.63;92649.28;4934905;29;20202;-76
2023/01/28 17:07:48;;;;;;;15.30;13.87;;;;;;;-0.08;90.84;92666.38;4949695;29;20217;-74
2023/01/28 17:10:15;;;;;;;15.80;14.20;;;;;;;-0.26;91.68;92635.56;4933707;29;20254;-78
2023/01/28 17:12:41;;;;;;;15.73;14.30;;;;;;;0.21;94.03;92665.66;4949416;29;20186;-77
2023/01/28 17:15:07;;;;;;;15.53;13.73;;;;;;;0.17;91.84;92664.53;4951572;29;20204;-85
2023/01/28 17:17:33;;;;;;;15.77;14.30;;;;;;;0.03;90.74;92666.44;4949927;29;20250;-78
2023/01/28 17:19:58;;;;;;;16.87;15.33;;;;;;;0.01;90.60;92652.25;4949764;29;20245;-77
2023/01/28 17:22:24;;;;;;;15.90;14.47;;;;;;;-0.02;91.35;92660.38;4950478;29;20181;-78
2023/01/28 17:24:49;;;;;;;16.37;14.63;;;;;;;0.09;92.62;92669.94;4933325;29;20244;-78
2023/01/28 17:27:14;;;;;;;14.50;13.13;;;;;;;-0.08;90.58;92651.75;4934415;29;20225;-78
2023/01/28 17:29:40;;;;;;;14.30;13.00;;;;;;;0.09;90.52;92675.06;4950258;29;20233;-78
2023/01/28 17:32:05;;;;;;;13.13;12.03;;;;;;;-0.14;90.18;92659.53;4950730;29;20213;-77
2023/01/28 17:34:30;;;;;;;12.80;11.70;;;;;;;0.02;90.32;92676.91;4949020;29;20234;-77
2023/01/28 17:36:56;;;;;;;13.77;12.60;;;;;;;0.08;89.78;92675.28;4948185;29;20196;-78
2023/01/28 17:39:21;;;;;;;14.90;13.73;;;;;;;-0.09;91.02;92672.47;4949361;29;21092;-78
2023/01/28 17:41:46;;;;;;;12.87;12.00;;;;;;;0.09;91.31;92679.41;4947698;29;20197;-78
2023/01/28 17:44:15;;;;;;;13.33;12.33;;;;;;;-0.13;92.37;92681.63;4947942;29;20253;-78
2023/01/28 17:46:41;;;;;;;13.23;12.23;;;;;;;-0.19;93.68;92683.22;4949501;29;20221;-77
2023/01/28 17:49:06;;;;;;;14.67;13.30;;;;;;;-0.20;93.84;92686.00;4949077;29;20227;-78
2023/01/28 17:51:32;;;;;;;13.07;12.07;;;;;;;-0.22;94.10;92683.66;4950640;29;20201;-77
2023/01/28 17:53:57;;;;;;;13.97;12.67;;;;;;;-0.31;94.99;92671.31;4950322;29;20301;-78
2023/01/28 17:56:25;;;;;;;15.80;14.53;;;;;;;-0.26;95.16;92689.41;4950179;29;20225;-77
2023/01/28 17:58:53;;;;;;;14.13;13.13;;;;;;;-0.48;96.45;92683.09;4950553;29;20323;-77
2023/01/28 18:01:20;;;;;;;14.83;13.57;;;;;;;-0.53;97.15;92695.78;4948210;29;20278;-78
2023/01/28 18:03:45;;;;;;;14.43;13.13;;;;;;;-0.63;97.63;92674.97;4950312;29;20233;-77
2023/01/28 18:06:10;;;;;;;14.37;13.20;;;;;;;-0.53;97.97;92685.53;4949706;29;20280;-78
2023/01/28 18:08:36;;;;;;;13.87;12.83;;;;;;;-0.54;97.22;92679.63;4949918;29;20237;-78
2023/01/28 18:11:01;;;;;;;14.27;12.97;;;;;;;-0.59;97.34;92676.13;4949507;29;21118;-78
2023/01/28 18:13:28;;;;;;;16.13;14.60;;;;;;;-0.54;98.01;92700.13;4950074;29;20237;-78
2023/01/28 18:15:54;;;;;;;14.50;13.17;;;;;;;-0.55;97.28;92690.06;4950392;29;20220;-78
2023/01/28 18:18:20;;;;;;;14.23;13.13;;;;;;;-0.74;96.93;92666.19;4934324;29;20229;-78
2023/01/28 18:20:55;;;;;;;13.93;12.83;;;;;;;-0.66;96.88;92690.75;4949343;29;20203;-77
2023/01/28 18:23:21;;;;;;;12.63;11.63;;;;;;;-0.67;96.81;92707.13;4949280;29;20237;-77
2023/01/28 18:25:46;;;;;;;13.50;12.50;;;;;;;-0.61;96.33;92703.72;4953120;29;20198;-77
2023/01/28 18:28:11;;;;;;;13.27;12.20;;;;;;;-0.83;95.52;92672.56;4936746;29;20237;-77
2023/01/28 18:30:37;;;;;;;12.33;11.47;;;;;;;-0.61;93.49;92698.59;4954597;29;20795;-77
2023/01/28 18:33:02;;;;;;;12.53;11.73;;;;;;;-0.55;93.78;92708.81;4952696;29;20221;-77
2023/01/28 18:35:27;;;;;;;12.97;11.67;;;;;;;-0.65;94.37;92703.34;4953547;29;20177;-77
2023/01/28 18:37:53;;;;;;;11.90;11.00;;;;;;;-0.56;93.18;92716.72;4953020;29;20208;-77
2023/01/28 18:40:20;;;;;;;12.63;11.77;;;;;;;-0.60;93.02;92695.03;4953276;29;20191;-77
2023/01/28 18:42:46;;;;;;;13.97;12.93;;;;;;;-0.62;92.76;92702.94;4952121;29;20201;-76
2023/01/28 18:45:11;;;;;;;12.83;11.90;;;;;;;-0.44;92.13;92715.03;4953783;29;21074;-78
2023/01/28 18:47:36;;;;;;;13.23;12.23;;;;;;;-0.57;91.72;92705.66;4952975;29;20273;-77
2023/01/28 18:50:02;;;;;;;12.00;11.00;;;;;;;-0.48;91.31;92719.78;4953429;29;20225;-77
2023/01/28 18:52:28;;;;;;;13.07;12.17;;;;;;;-0.43;91.17;92716.59;4953891;29;20192;-78
2023/01/28 18:54:53;;;;;;;26.63;19.13;;;;;;;-0.44;92.30;92713.25;4950672;29;20276;-77
2023/01/28 18:57:19;;;;;;;13.80;12.70;;;;;;;-0.51;91.87;92715.09;4937254;29;20198;-76
2023/01/28 18:59:44;;;;;;;13.17;12.23;;;;;;;-0.37;91.36;92710.63;4952980;29;20221;-77
2023/01/28 19:02:12;;;;;;;13.67;12.73;;;;;;;-0.55;91.79;92696.00;4952929;29;20189;-76
2023/01/28 19:04:37;;;;;;;13.00;11.97;;;;;;;-0.49;91.10;92704.63;4951790;29;20308;-77
2023/01/28 19:07:03;;;;;;;13.43;12.33;;;;;;;-0.47;91.42;92715.44;4953787;29;20245;-77
2023/01/28 19:09:28;;;;;;;13.10;12.10;;;;;;;-0.61;91.22;92683.22;4951774;29;20234;-77
2023/01/28 19:11:53;;;;;;;14.97;13.63;;;;;;;-0.40;92.01;92713.59;4953534;29;20221;-77
2023/01/28 19:14:19;;;;;;;15.97;14.33;;;;;;;-0.27;93.96;92705.81;4951732;29;20209;-77
2023/01/28 19:16:45;;;;;;;13.13;12.23;;;;;;;-0.47;92.52;92705.97;4953703;29;20273;-77
2023/01/28 19:19:11;;;;;;;11.93;10.93;;;;;;;-0.46;92.84;92717.81;4952100;29;20229;-77
2023/01/28 19:21:36;;;;;;;13.60;12.57;;;;;;;-0.54;93.75;92720.63;4950857;29;20204;-77
2023/01/28 19:24:08;;;;;;;15.73;14.70;;;;;;;-0.64;94.50;92709.28;4952548;29;20302;-76
2023/01/28 19:26:34;;;;;;;13.10;12.20;;;;;;;-0.74;93.91;92708.94;4951490;29;20228;-77
2023/01/28 19:29:00;;;;;;;14.10;13.00;;;;;;;-0.53;94.48;92727.31;4952155;29;20261;-77
2023/01/28 19:31:26;;;;;;;13.83;12.67;;;;;;;-0.66;95.18;92722.31;4950758;29;20174;-77
2023/01/28 19:33:54;;;;;;;12.90;11.87;;;;;;;-0.69;93.52;92717.59;4952603;29;20233;-78
2023/01/28 19:36:20;;;;;;;13.50;12.60;;;;;;;-0.75;94.75;92712.50;4951904;29;20190;-78
2023/01/28 19:38:45;;;;;;;14.33;13.23;;;;;;;0.54;100.00;92739.75;4952316;29;20228;-80
2023/01/28 19:41:14;;;;;;;14.03;12.93;;;;;;;-0.30;92.03;92753.19;4952371;29;20218;-78
2023/01/28 19:43:41;;;;;;;13.73;12.77;;;;;;;-0.52;93.25;92753.75;4950717;29;20244;-75
2023/01/28 19:46:11;;;;;;;13.37;12.47;;;;;;;-0.57;92.93;92756.94;4951694;29;20209;-75
2023/01/28 19:48:37;;;;;;;14.10;12.80;;;;;;;-0.45;93.33;92757.81;4952396;29;20345;-73
2023/01/28 19:51:06;;;;;;;14.07;13.03;;;;;;;-0.53;93.64;92757.31;4951842;29;20186;-74
2023/01/28 19:53:36;;;;;;;13.20;12.20;;;;;;;-0.57;93.01;92756.94;4949737;29;20250;-73
2023/01/28 19:56:03;;;;;;;12.63;11.63;;;;;;;-0.54;92.93;92760.84;4952556;29;20189;-72
2023/01/28 19:58:33;;;;;;;13.87;12.60;;;;;;;-0.64;94.45;92755.41;4951464;29;20364;-74
2023/01/28 20:01:09;;;;;;;13.00;12.00;;;;;;;-0.55;93.90;92754.16;4950904;29;20192;-72
2023/01/28 20:03:35;;;;;;;14.77;13.53;;;;;;;-0.59;93.37;92761.47;4951621;29;20221;-75
2023/01/28 20:06:04;;;;;;;14.67;13.57;;;;;;;-0.61;93.07;92763.44;4935343;29;20232;-73
2023/01/28 20:08:29;;;;;;;13.87;12.90;;;;;;;-0.57;92.56;92758.72;4951469;29;20236;-77
2023/01/28 20:11:22;;;;;;;12.87;11.97;;;;;;;-0.56;92.55;92766.19;4949890;29;20193;-72
2023/01/28 20:13:50;;;;;;;13.13;12.03;;;;;;;-0.50;93.01;92762.03;4947413;29;20234;-75
2023/01/28 20:16:30;;;;;;;13.47;12.40;;;;;;;-0.50;93.08;92765.34;4949523;29;20197;-75
2023/01/28 20:18:58;;;;;;;13.50;12.57;;;;;;;-0.58;92.83;92769.97;4948901;29;20229;-74